Time;durP1;ratioP1;P1;durP2;ratioP2;P2;SDS_P1;SDS_P2;PMS_P1;PMS_P2;Temp;Humidity;BMP_temperature;BMP_pressure;BME280_temperature;BME280_humidity;BME280_pressure;Samples;Min_cycle;Max_cycle;Signal;HPM_P1;HPM_P2
2023/09/09 00:02:08;;;;;;;32.92;25.67;;;19.90;99.90;;;;;;5050077;28;20045;-84
2023/09/09 00:04:34;;;;;;;29.48;25.88;;;19.80;99.90;;;;;;5041398;28;20091;-84
2023/09/09 00:07:02;;;;;;;36.92;31.83;;;19.70;99.90;;;;;;5036921;28;20123;-84
2023/09/09 00:09:29;;;;;;;37.30;33.28;;;19.70;99.90;;;;;;5039155;28;20085;-84
2023/09/09 00:11:55;;;;;;;37.45;33.35;;;19.70;99.90;;;;;;5049804;28;20025;-84
2023/09/09 00:14:20;;;;;;;39.35;31.95;;;19.70;99.90;;;;;;5048328;28;20507;-84
2023/09/09 00:16:46;;;;;;;37.65;32.25;;;19.60;99.90;;;;;;5048676;28;20021;-84
2023/09/09 00:19:11;;;;;;;32.60;29.17;;;19.60;99.90;;;;;;5064025;28;20033;-84
2023/09/09 00:21:37;;;;;;;35.88;31.92;;;19.60;99.90;;;;;;5045898;28;20031;-84
2023/09/09 00:24:03;;;;;;;36.58;30.38;;;19.60;99.90;;;;;;5046170;28;20033;-83
2023/09/09 00:26:31;;;;;;;37.13;31.23;;;19.60;99.90;;;;;;5048401;28;20032;-84
2023/09/09 00:28:59;;;;;;;34.20;29.20;;;19.50;99.90;;;;;;5040514;28;20393;-84
2023/09/09 00:31:25;;;;;;;40.42;35.13;;;19.50;99.90;;;;;;5050254;28;20029;-84
2023/09/09 00:33:50;;;;;;;42.70;37.00;;;19.50;99.90;;;;;;5050974;28;20032;-84
2023/09/09 00:36:16;;;;;;;46.58;37.17;;;19.40;99.90;;;;;;5049101;28;20032;-84
2023/09/09 00:38:41;;;;;;;52.75;39.85;;;19.40;99.90;;;;;;5047017;28;20025;-83
2023/09/09 00:41:15;;;;;;;55.60;43.67;;;19.40;99.90;;;;;;5050291;28;20569;-84
2023/09/09 00:43:41;;;;;;;46.00;38.75;;;19.40;99.90;;;;;;5063785;28;20564;-84
2023/09/09 00:46:07;;;;;;;45.97;39.30;;;19.40;99.90;;;;;;5048603;28;20162;-84
2023/09/09 00:48:33;;;;;;;49.45;40.60;;;19.40;99.90;;;;;;5047566;28;20112;-84
2023/09/09 00:50:59;;;;;;;36.20;31.88;;;19.40;99.90;;;;;;5030591;28;20366;-84
2023/09/09 00:53:26;;;;;;;47.53;37.30;;;19.40;99.90;;;;;;5040363;28;20047;-84
2023/09/09 00:55:52;;;;;;;51.88;40.97;;;19.30;99.90;;;;;;5052754;28;20035;-84
2023/09/09 00:58:18;;;;;;;42.47;37.88;;;19.30;99.90;;;;;;5051134;28;20067;-84
2023/09/09 01:00:44;;;;;;;44.33;39.55;;;19.30;99.90;;;;;;5052983;28;20032;-84
2023/09/09 01:03:09;;;;;;;48.83;40.45;;;19.20;99.90;;;;;;5048128;28;20049;-84
2023/09/09 01:05:38;;;;;;;40.65;36.25;;;19.20;99.90;;;;;;5046573;28;20547;-84
2023/09/09 01:08:04;;;;;;;37.53;31.50;;;19.20;99.90;;;;;;5059231;28;20039;-84
2023/09/09 01:10:30;;;;;;;35.80;31.40;;;19.10;99.90;;;;;;5051581;28;20457;-84
2023/09/09 01:12:56;;;;;;;41.00;34.38;;;19.10;99.90;;;;;;5050447;28;20032;-84
2023/09/09 01:15:21;;;;;;;40.75;34.53;;;19.00;99.90;;;;;;5040951;28;20094;-84
2023/09/09 01:17:48;;;;;;;40.47;32.97;;;19.00;99.90;;;;;;5053408;28;20021;-84
2023/09/09 01:20:17;;;;;;;31.95;28.48;;;18.90;99.90;;;;;;5063847;28;20030;-84
2023/09/09 01:22:46;;;;;;;27.00;22.98;;;18.90;99.90;;;;;;5045147;28;20501;-84
2023/09/09 01:25:12;;;;;;;33.88;26.67;;;18.80;99.90;;;;;;5061088;28;20045;-84
2023/09/09 01:27:38;;;;;;;35.08;31.27;;;18.80;99.90;;;;;;5051612;28;20054;-84
2023/09/09 01:30:05;;;;;;;39.15;32.55;;;18.70;99.90;;;;;;5052321;28;20167;-84
2023/09/09 01:32:31;;;;;;;41.72;35.55;;;18.70;99.90;;;;;;5048988;28;20017;-84
2023/09/09 01:34:56;;;;;;;46.60;41.25;;;18.70;99.90;;;;;;5045540;28;20393;-85
2023/09/09 01:37:22;;;;;;;49.03;43.00;;;18.70;99.90;;;;;;5052197;28;20118;-84
2023/09/09 01:39:48;;;;;;;70.47;48.10;;;18.70;99.90;;;;;;5047420;28;20028;-85
2023/09/09 01:42:14;;;;;;;59.10;48.40;;;18.70;99.90;;;;;;5052088;28;20469;-84
2023/09/09 01:44:40;;;;;;;48.90;43.58;;;18.70;99.90;;;;;;5049526;28;20033;-84
2023/09/09 01:47:06;;;;;;;53.38;44.17;;;18.70;99.90;;;;;;5053325;28;20374;-84
2023/09/09 01:49:31;;;;;;;53.33;44.45;;;18.70;99.90;;;;;;5046468;28;20033;-85
2023/09/09 01:51:57;;;;;;;50.53;43.30;;;18.80;99.90;;;;;;5050788;28;20021;-84
2023/09/09 01:54:22;;;;;;;49.20;42.63;;;18.70;99.90;;;;;;5050795;28;20119;-84
2023/09/09 01:56:48;;;;;;;32.30;28.95;;;18.60;99.90;;;;;;5039910;28;20074;-85
2023/09/09 01:59:14;;;;;;;32.65;26.75;;;18.60;99.90;;;;;;5044948;28;20059;-84
2023/09/09 02:01:39;;;;;;;26.35;23.52;;;18.50;99.90;;;;;;5044493;28;20040;-84
2023/09/09 02:04:05;;;;;;;27.08;24.25;;;18.50;99.90;;;;;;5034862;28;20076;-84
2023/09/09 02:06:30;;;;;;;26.30;23.67;;;18.50;99.90;;;;;;5047531;28;20067;-84
2023/09/09 02:08:56;;;;;;;30.45;26.98;;;18.40;99.90;;;;;;5041873;28;20025;-85
2023/09/09 02:11:21;;;;;;;40.10;31.42;;;18.40;99.90;;;;;;5051577;28;20064;-84
2023/09/09 02:13:47;;;;;;;27.58;24.60;;;18.40;99.90;;;;;;5048940;28;20047;-84
2023/09/09 02:16:12;;;;;;;40.38;35.33;;;18.30;99.90;;;;;;5045103;28;20108;-84
2023/09/09 02:18:39;;;;;;;44.53;38.28;;;18.30;99.90;;;;;;5037474;28;20037;-84
2023/09/09 02:21:05;;;;;;;53.00;45.05;;;18.30;99.90;;;;;;5047069;28;20064;-84
2023/09/09 02:23:31;;;;;;;32.97;29.40;;;18.30;99.90;;;;;;5034812;28;20060;-85
2023/09/09 02:25:57;;;;;;;18.67;16.67;;;18.30;99.90;;;;;;5044047;28;20094;-84
2023/09/09 02:28:23;;;;;;;17.20;15.45;;;18.30;99.90;;;;;;5051140;28;20112;-84
2023/09/09 02:30:48;;;;;;;18.45;16.52;;;18.20;99.90;;;;;;5048352;28;20032;-85
2023/09/09 02:33:14;;;;;;;44.30;39.30;;;18.20;99.90;;;;;;5048955;28;20143;-84
2023/09/09 02:35:44;;;;;;;36.65;32.75;;;18.10;99.90;;;;;;5052658;28;20079;-84
2023/09/09 02:38:09;;;;;;;38.67;33.97;;;18.10;99.90;;;;;;5050079;28;20502;-84
2023/09/09 02:40:35;;;;;;;40.00;35.70;;;18.10;99.90;;;;;;5046814;28;20128;-84
2023/09/09 02:43:01;;;;;;;36.47;32.38;;;18.10;99.90;;;;;;5047231;28;20029;-84
2023/09/09 02:45:26;;;;;;;34.05;30.38;;;18.00;99.90;;;;;;5050568;28;20519;-85
2023/09/09 02:47:52;;;;;;;49.55;38.50;;;18.00;99.90;;;;;;5068647;28;20032;-84
2023/09/09 02:50:18;;;;;;;40.65;35.70;;;18.00;99.90;;;;;;5066901;28;20036;-84
2023/09/09 02:52:43;;;;;;;46.03;38.90;;;18.00;99.90;;;;;;5052133;28;20025;-84
2023/09/09 02:55:09;;;;;;;49.75;43.67;;;18.00;99.90;;;;;;5037436;28;20033;-84
2023/09/09 02:57:34;;;;;;;48.60;43.30;;;18.00;99.90;;;;;;5044622;28;20075;-84
2023/09/09 03:00:00;;;;;;;44.67;38.40;;;18.00;99.90;;;;;;5048500;28;20033;-84
2023/09/09 03:02:25;;;;;;;43.72;39.00;;;18.00;99.90;;;;;;5050806;28;20508;-84
2023/09/09 03:04:51;;;;;;;45.22;39.45;;;17.90;99.90;;;;;;5049649;28;20039;-84
2023/09/09 03:07:16;;;;;;;37.33;32.35;;;17.90;99.90;;;;;;5050045;28;20028;-83
2023/09/09 03:09:42;;;;;;;32.92;28.80;;;17.90;99.90;;;;;;5048843;28;20075;-84
2023/09/09 03:12:08;;;;;;;52.15;42.53;;;17.80;99.90;;;;;;5051233;28;20028;-84
2023/09/09 03:14:33;;;;;;;63.40;47.80;;;17.80;99.90;;;;;;5038208;28;20409;-84
2023/09/09 03:16:59;;;;;;;81.20;46.40;;;17.80;99.90;;;;;;5038901;28;20489;-84
2023/09/09 03:19:24;;;;;;;72.05;48.15;;;17.80;99.90;;;;;;5040114;28;20086;-84
2023/09/09 03:21:50;;;;;;;69.97;46.30;;;17.70;99.90;;;;;;5037196;28;20040;-84
2023/09/09 03:24:15;;;;;;;57.88;40.97;;;17.80;99.90;;;;;;5049601;28;20078;-84
2023/09/09 03:26:41;;;;;;;66.50;50.13;;;17.80;99.90;;;;;;5051005;28;20413;-83
2023/09/09 03:29:07;;;;;;;62.25;47.08;;;17.70;99.90;;;;;;5048329;28;20480;-83
2023/09/09 03:31:33;;;;;;;64.53;50.83;;;17.70;99.90;;;;;;5046527;28;20047;-83
2023/09/09 03:33:59;;;;;;;51.95;40.30;;;17.80;99.90;;;;;;5048666;28;20171;-83
2023/09/09 03:36:24;;;;;;;56.47;42.70;;;17.70;99.90;;;;;;5049021;28;20167;-83
2023/09/09 03:38:50;;;;;;;41.45;33.95;;;17.70;99.90;;;;;;5049445;28;20084;-83
2023/09/09 03:41:15;;;;;;;47.28;38.78;;;17.70;99.90;;;;;;5049446;28;20028;-83
2023/09/09 03:43:41;;;;;;;41.42;33.60;;;17.60;99.90;;;;;;5051455;28;20024;-83
2023/09/09 03:46:07;;;;;;;38.95;31.70;;;17.70;99.90;;;;;;5039184;28;20037;-84
2023/09/09 03:48:32;;;;;;;36.55;30.08;;;17.60;99.90;;;;;;5063508;28;20544;-84
2023/09/09 03:50:59;;;;;;;41.10;34.47;;;17.60;99.90;;;;;;5064568;28;20035;-85
2023/09/09 03:53:25;;;;;;;42.50;35.28;;;17.50;99.90;;;;;;5048775;28;20100;-85
2023/09/09 03:55:50;;;;;;;58.50;46.90;;;17.50;99.90;;;;;;5047308;28;20112;-85
2023/09/09 03:58:16;;;;;;;61.20;47.45;;;17.50;99.90;;;;;;5030484;28;20175;-85
2023/09/09 04:00:41;;;;;;;68.60;49.13;;;17.50;99.90;;;;;;5058787;28;20040;-85
2023/09/09 04:03:07;;;;;;;78.07;55.30;;;17.50;99.90;;;;;;5064819;28;20140;-85
2023/09/09 04:05:32;;;;;;;74.32;57.25;;;17.50;99.90;;;;;;5050678;28;20040;-85
2023/09/09 04:08:03;;;;;;;76.78;57.15;;;17.40;99.90;;;;;;5049889;28;20051;-84
2023/09/09 04:10:28;;;;;;;58.92;47.03;;;17.40;99.90;;;;;;5066340;28;20526;-84
2023/09/09 04:12:54;;;;;;;55.78;45.83;;;17.40;99.90;;;;;;5050830;28;20021;-84
2023/09/09 04:15:19;;;;;;;48.50;41.35;;;17.40;99.90;;;;;;5045292;28;20021;-85
2023/09/09 04:17:45;;;;;;;49.83;41.65;;;17.40;99.90;;;;;;5045057;28;20021;-84
2023/09/09 04:20:10;;;;;;;77.78;52.22;;;17.40;99.90;;;;;;5050124;28;20033;-85
2023/09/09 04:22:36;;;;;;;93.32;58.67;;;17.30;99.90;;;;;;5050478;28;20028;-85
2023/09/09 04:25:01;;;;;;;125.07;61.50;;;17.30;99.90;;;;;;5050108;28;20041;-85
2023/09/09 04:27:27;;;;;;;73.03;56.10;;;17.30;99.90;;;;;;5050235;28;20104;-85
2023/09/09 04:29:53;;;;;;;59.92;48.92;;;17.30;99.90;;;;;;5050773;28;20040;-84
2023/09/09 04:32:18;;;;;;;69.25;53.65;;;17.20;99.90;;;;;;5049481;28;20025;-84
2023/09/09 04:34:44;;;;;;;72.47;54.10;;;17.20;99.90;;;;;;5047530;28;20090;-85
2023/09/09 04:37:09;;;;;;;65.20;51.95;;;17.20;99.90;;;;;;5040719;28;20029;-85
2023/09/09 04:39:35;;;;;;;63.08;53.38;;;17.20;99.90;;;;;;5049378;28;20448;-84
2023/09/09 04:42:00;;;;;;;98.28;66.70;;;17.20;99.90;;;;;;5032860;28;20060;-85
2023/09/09 04:44:26;;;;;;;83.00;62.25;;;17.20;99.90;;;;;;5048151;28;20021;-84
2023/09/09 04:46:54;;;;;;;86.10;61.15;;;17.20;99.90;;;;;;5062214;28;20025;-85
2023/09/09 04:49:19;;;;;;;121.53;68.75;;;17.20;99.90;;;;;;5064243;28;20103;-85
2023/09/09 04:51:45;;;;;;;102.55;69.85;;;17.20;99.90;;;;;;5048224;28;20056;-85
2023/09/09 04:54:10;;;;;;;88.72;66.45;;;17.10;99.90;;;;;;5052200;28;20088;-84
2023/09/09 04:56:36;;;;;;;107.75;71.72;;;17.20;99.90;;;;;;5046026;28;20037;-85
2023/09/09 04:59:01;;;;;;;114.57;71.38;;;17.20;99.90;;;;;;5048064;28;20032;-84
2023/09/09 05:01:27;;;;;;;134.23;80.93;;;17.20;99.90;;;;;;5043865;28;20013;-85
2023/09/09 05:03:52;;;;;;;100.35;74.97;;;17.20;99.90;;;;;;5037647;28;20075;-85
2023/09/09 05:06:18;;;;;;;293.92;90.55;;;17.20;99.90;;;;;;5030462;28;20049;-85
2023/09/09 05:08:45;;;;;;;381.25;97.43;;;17.20;99.90;;;;;;5046859;28;20124;-85
2023/09/09 05:11:10;;;;;;;263.92;95.65;;;17.30;99.90;;;;;;5037583;28;20025;-84
2023/09/09 05:13:36;;;;;;;297.58;97.47;;;17.30;99.90;;;;;;5041488;28;20052;-85
2023/09/09 05:16:02;;;;;;;491.63;99.45;;;17.40;99.90;;;;;;5041931;28;20107;-85
2023/09/09 05:18:28;;;;;;;678.88;115.65;;;17.40;99.90;;;;;;5066575;28;20021;-85
2023/09/09 05:20:53;;;;;;;384.75;96.80;;;17.40;99.90;;;;;;5057542;28;20037;-85
2023/09/09 05:23:19;;;;;;;904.92;132.98;;;17.40;99.90;;;;;;5044358;28;20029;-84
2023/09/09 05:25:44;;;;;;;278.98;97.85;;;17.40;99.90;;;;;;5043249;28;20550;-85
2023/09/09 05:28:10;;;;;;;440.83;103.05;;;17.40;99.90;;;;;;5045550;28;20083;-84
2023/09/09 05:30:41;;;;;;;305.92;102.53;;;17.50;99.90;;;;;;5061654;28;20508;-84
2023/09/09 05:33:07;;;;;;;539.53;112.15;;;17.50;99.90;;;;;;5039356;28;20035;-84
2023/09/09 05:35:32;;;;;;;548.67;109.22;;;17.50;99.90;;;;;;5047530;28;20107;-84
2023/09/09 05:37:58;;;;;;;634.83;123.97;;;17.50;99.90;;;;;;5047318;28;20431;-84
2023/09/09 05:40:24;;;;;;;453.20;114.93;;;17.60;99.90;;;;;;5045762;28;20029;-84
2023/09/09 05:42:49;;;;;;;381.45;104.70;;;17.60;99.90;;;;;;5045042;28;20471;-84
2023/09/09 05:45:15;;;;;;;471.10;109.97;;;17.60;99.90;;;;;;5048525;28;20111;-84
2023/09/09 05:47:42;;;;;;;540.45;118.05;;;17.70;99.90;;;;;;5050319;28;20111;-84
2023/09/09 05:50:08;;;;;;;426.15;118.32;;;17.70;99.90;;;;;;5051890;28;20029;-84
2023/09/09 05:52:34;;;;;;;551.63;129.20;;;17.70;99.90;;;;;;5069156;28;20032;-85
2023/09/09 05:54:59;;;;;;;350.45;120.28;;;17.70;99.90;;;;;;5046160;28;20064;-85
2023/09/09 05:57:25;;;;;;;329.52;115.10;;;17.80;99.90;;;;;;5068935;28;20072;-84
2023/09/09 05:59:50;;;;;;;291.10;115.93;;;17.80;99.90;;;;;;5062380;28;20029;-84
2023/09/09 06:02:16;;;;;;;562.85;126.18;;;17.80;99.90;;;;;;5047452;28;20057;-83
2023/09/09 06:04:42;;;;;;;337.73;120.75;;;17.80;99.90;;;;;;5047249;28;20404;-84
2023/09/09 06:07:07;;;;;;;1057.13;157.55;;;17.90;99.90;;;;;;5042405;28;20025;-83
2023/09/09 06:09:33;;;;;;;571.38;131.02;;;18.00;99.90;;;;;;5051748;28;20029;-83
2023/09/09 06:11:58;;;;;;;430.23;121.30;;;18.00;99.90;;;;;;5052475;28;20032;-83
2023/09/09 06:14:24;;;;;;;337.25;129.48;;;18.00;99.90;;;;;;5052204;28;20032;-83
2023/09/09 06:16:49;;;;;;;435.38;127.38;;;18.10;99.90;;;;;;5052898;28;20465;-83
2023/09/09 06:19:15;;;;;;;343.73;121.53;;;18.10;99.90;;;;;;5048242;28;20026;-83
2023/09/09 06:21:41;;;;;;;367.83;112.10;;;18.20;99.90;;;;;;5033013;28;20018;-83
2023/09/09 06:24:07;;;;;;;746.53;149.00;;;18.20;99.90;;;;;;5032778;28;20021;-83
2023/09/09 06:26:33;;;;;;;616.65;127.25;;;18.20;99.90;;;;;;5044486;28;20036;-82
2023/09/09 06:29:00;;;;;;;554.15;127.50;;;18.30;99.90;;;;;;5068384;28;20025;-83
2023/09/09 06:31:29;;;;;;;629.97;135.80;;;18.30;99.90;;;;;;5068857;28;20131;-83
2023/09/09 06:33:54;;;;;;;358.77;133.57;;;18.40;99.90;;;;;;5043169;28;20505;-83
2023/09/09 06:36:21;;;;;;;575.10;136.27;;;18.40;99.90;;;;;;5035326;28;20064;-83
2023/09/09 06:38:47;;;;;;;422.27;135.48;;;18.50;99.90;;;;;;5046215;28;20049;-83
2023/09/09 06:41:13;;;;;;;568.90;143.13;;;18.50;99.90;;;;;;5049804;28;20447;-83
2023/09/09 06:43:38;;;;;;;315.00;126.10;;;18.60;99.90;;;;;;5052080;28;20493;-83
2023/09/09 06:46:04;;;;;;;264.73;123.18;;;18.60;99.90;;;;;;5051590;28;20037;-83
2023/09/09 06:48:30;;;;;;;339.80;122.60;;;18.60;99.90;;;;;;5048013;28;20026;-82
2023/09/09 06:50:55;;;;;;;298.88;126.50;;;18.70;99.90;;;;;;5048647;28;20025;-83
2023/09/09 06:53:22;;;;;;;468.85;127.65;;;18.80;99.90;;;;;;5060815;28;20430;-83
2023/09/09 06:55:47;;;;;;;511.85;128.52;;;18.80;99.90;;;;;;5048752;28;20028;-83
2023/09/09 06:58:14;;;;;;;337.88;117.32;;;18.90;99.90;;;;;;5060227;28;20033;-84
2023/09/09 07:00:39;;;;;;;214.27;114.63;;;18.80;99.90;;;;;;5046914;28;20025;-84
2023/09/09 07:03:07;;;;;;;272.38;115.28;;;18.90;99.90;;;;;;5044194;28;20099;-84
2023/09/09 07:05:33;;;;;;;390.67;118.45;;;19.00;99.90;;;;;;5059139;28;20028;-84
2023/09/09 07:07:58;;;;;;;194.00;111.80;;;18.90;99.90;;;;;;5045050;28;20102;-84
2023/09/09 07:10:24;;;;;;;219.15;114.50;;;18.90;99.90;;;;;;5043410;28;20436;-84
2023/09/09 07:12:49;;;;;;;209.40;114.45;;;18.90;99.90;;;;;;5046874;28;20079;-84
2023/09/09 07:15:16;;;;;;;488.85;121.90;;;19.00;99.90;;;;;;5047148;28;20033;-84
2023/09/09 07:17:43;;;;;;;234.85;115.18;;;19.10;99.90;;;;;;5044988;28;20043;-84
2023/09/09 07:20:09;;;;;;;490.88;129.60;;;19.10;99.90;;;;;;5066938;28;20064;-83
2023/09/09 07:22:35;;;;;;;242.82;122.25;;;19.20;99.90;;;;;;5065085;28;20045;-82
2023/09/09 07:25:00;;;;;;;214.95;127.22;;;19.30;99.90;;;;;;5040566;28;20452;-84
2023/09/09 07:27:26;;;;;;;233.57;124.85;;;19.30;99.90;;;;;;5065750;28;20443;-83
2023/09/09 07:29:51;;;;;;;181.38;121.45;;;19.40;99.90;;;;;;5046811;28;20029;-84
2023/09/09 07:32:17;;;;;;;185.80;113.18;;;19.50;99.90;;;;;;5065880;28;20029;-84
2023/09/09 07:34:42;;;;;;;614.97;137.05;;;19.50;99.90;;;;;;5064798;28;20068;-83
2023/09/09 07:37:08;;;;;;;329.92;121.68;;;19.50;99.90;;;;;;5047214;28;20488;-83
2023/09/09 07:39:49;;;;;;;608.78;135.52;;;19.60;99.90;;;;;;5044886;28;20107;-84
2023/09/09 07:42:14;;;;;;;189.10;117.15;;;19.70;99.90;;;;;;5046931;28;20169;-84
2023/09/09 07:44:40;;;;;;;182.63;116.00;;;19.70;99.90;;;;;;5045524;28;20028;-83
2023/09/09 07:47:07;;;;;;;307.05;114.85;;;19.70;99.90;;;;;;5058203;28;20085;-87
2023/09/09 07:49:33;;;;;;;204.48;119.68;;;19.70;99.90;;;;;;5059784;28;20021;-86
2023/09/09 07:51:59;;;;;;;201.80;125.40;;;19.70;99.90;;;;;;5044558;28;20069;-85
2023/09/09 07:54:24;;;;;;;183.95;115.50;;;19.80;99.90;;;;;;5059237;28;20124;-87
2023/09/09 07:56:50;;;;;;;196.13;122.50;;;19.90;99.90;;;;;;5068390;28;20102;-86
2023/09/09 07:59:15;;;;;;;178.45;121.78;;;20.00;99.90;;;;;;5052183;28;20422;-84
2023/09/09 08:01:42;;;;;;;178.57;120.85;;;20.10;99.90;;;;;;5048755;28;20055;-84
2023/09/09 08:04:07;;;;;;;208.82;120.53;;;20.20;99.90;;;;;;5049998;28;20028;-84
2023/09/09 08:06:33;;;;;;;212.98;121.13;;;20.20;99.90;;;;;;5046817;28;20509;-84
2023/09/09 08:09:01;;;;;;;205.63;124.20;;;20.20;99.90;;;;;;5055324;28;20053;-84
2023/09/09 08:11:27;;;;;;;282.85;119.50;;;20.30;99.90;;;;;;5061365;28;20457;-84
2023/09/09 08:13:52;;;;;;;177.77;118.85;;;20.40;99.90;;;;;;5051966;28;20021;-83
2023/09/09 08:16:18;;;;;;;174.00;121.03;;;20.40;99.90;;;;;;5060491;28;20480;-84
2023/09/09 08:18:43;;;;;;;179.60;122.47;;;20.50;99.90;;;;;;5044090;28;20457;-84
2023/09/09 08:21:10;;;;;;;181.43;120.25;;;20.60;99.90;;;;;;5047042;28;20064;-85
2023/09/09 08:23:36;;;;;;;183.70;119.80;;;20.70;99.90;;;;;;5036525;23;20057;-85
2023/09/09 08:26:02;;;;;;;188.63;121.47;;;20.80;99.90;;;;;;5029992;28;20099;-84
2023/09/09 08:28:27;;;;;;;171.52;119.53;;;20.90;99.90;;;;;;5035622;28;20053;-85
2023/09/09 08:31:00;;;;;;;166.85;113.30;;;21.00;99.90;;;;;;5024934;28;20211;-85
2023/09/09 08:33:26;;;;;;;165.13;115.18;;;21.10;99.90;;;;;;5047791;28;20032;-85
2023/09/09 08:35:57;;;;;;;163.02;115.85;;;21.30;99.90;;;;;;5050880;28;20033;-85
2023/09/09 08:38:22;;;;;;;150.02;107.85;;;21.40;99.90;;;;;;5050535;28;20032;-84
2023/09/09 08:40:57;;;;;;;158.90;111.30;;;21.50;99.90;;;;;;5027471;28;20030;-85
2023/09/09 08:43:26;;;;;;;142.30;107.68;;;21.50;99.90;;;;;;5032556;28;20105;-85
2023/09/09 08:46:12;;;;;;;149.35;111.13;;;21.50;99.90;;;;;;5029348;28;20175;-85
2023/09/09 08:48:41;;;;;;;144.73;106.68;;;21.50;99.90;;;;;;5030687;28;20067;-84
2023/09/09 08:51:11;;;;;;;133.50;100.82;;;21.60;99.90;;;;;;5024648;28;20025;-84
2023/09/09 08:53:39;;;;;;;140.80;106.28;;;21.90;99.90;;;;;;5030500;28;20033;-85
2023/09/09 08:56:04;;;;;;;135.80;104.63;;;22.10;99.90;;;;;;5049880;28;20397;-84
2023/09/09 08:58:30;;;;;;;132.63;101.10;;;22.30;99.90;;;;;;5032184;28;20025;-85
2023/09/09 09:00:57;;;;;;;126.60;95.90;;;22.40;99.90;;;;;;5035281;28;20038;-84
2023/09/09 09:03:24;;;;;;;129.60;98.53;;;22.40;99.90;;;;;;5022619;28;20120;-85
2023/09/09 09:05:53;;;;;;;130.60;99.18;;;22.50;99.90;;;;;;5033727;28;20516;-85
2023/09/09 09:08:18;;;;;;;133.32;100.47;;;22.50;99.90;;;;;;5033262;28;20476;-85
2023/09/09 09:10:47;;;;;;;134.00;100.50;;;22.50;99.90;;;;;;5033870;28;20025;-85
2023/09/09 09:13:13;;;;;;;140.27;103.38;;;22.60;99.90;;;;;;5048004;28;20021;-84
2023/09/09 09:15:41;;;;;;;131.38;100.82;;;22.60;99.90;;;;;;5036698;28;20029;-85
2023/09/09 09:18:08;;;;;;;132.10;100.97;;;22.70;99.90;;;;;;5037234;28;20032;-84
2023/09/09 09:20:33;;;;;;;124.45;95.72;;;22.70;99.90;;;;;;5055394;28;20037;-85
2023/09/09 09:23:02;;;;;;;119.57;90.43;;;22.70;99.90;;;;;;5033490;28;20029;-84
2023/09/09 09:25:34;;;;;;;121.97;92.25;;;22.80;99.90;;;;;;5055192;28;20097;-85
2023/09/09 09:28:02;;;;;;;133.77;98.57;;;22.80;99.90;;;;;;5036378;28;20025;-84
2023/09/09 09:30:29;;;;;;;123.68;94.38;;;22.80;99.90;;;;;;5039035;28;20369;-84
2023/09/09 09:32:55;;;;;;;125.22;95.50;;;22.90;99.90;;;;;;5034639;28;20040;-84
2023/09/09 09:35:23;;;;;;;122.25;92.57;;;23.00;99.90;;;;;;5032579;28;20029;-84
2023/09/09 09:37:59;;;;;;;125.57;99.18;;;23.10;99.90;;;;;;5033259;28;20124;-84
2023/09/09 09:40:29;;;;;;;105.28;85.55;;;23.10;99.90;;;;;;5016490;28;20029;-84
2023/09/09 09:42:56;;;;;;;109.90;87.47;;;23.20;99.90;;;;;;5019172;28;20018;-85
2023/09/09 09:45:26;;;;;;;101.57;80.55;;;23.30;99.90;;;;;;5021247;28;20041;-85
2023/09/09 09:47:52;;;;;;;109.90;88.78;;;23.40;99.90;;;;;;5034764;28;20032;-85
2023/09/09 09:50:19;;;;;;;108.55;85.03;;;23.50;99.90;;;;;;5041875;28;20025;-85
2023/09/09 09:52:55;;;;;;;107.85;84.95;;;23.60;99.90;;;;;;5050159;28;20024;-84
2023/09/09 09:55:21;;;;;;;110.32;84.85;;;23.70;99.90;;;;;;5031102;28;20029;-84
2023/09/09 09:57:47;;;;;;;110.50;85.03;;;23.80;99.90;;;;;;5054056;28;20052;-84
2023/09/09 10:00:15;;;;;;;101.45;78.10;;;23.90;99.90;;;;;;5053852;28;20056;-84
2023/09/09 10:02:41;;;;;;;95.68;74.60;;;24.10;99.90;;;;;;5032564;28;20549;-85
2023/09/09 10:05:12;;;;;;;92.95;72.13;;;24.20;99.90;;;;;;5007646;28;20117;-84
2023/09/09 10:07:45;;;;;;;98.18;77.00;;;24.30;99.90;;;;;;5049064;28;20127;-83
2023/09/09 10:10:15;;;;;;;93.50;73.32;;;24.40;99.90;;;;;;5052570;28;20760;-83
2023/09/09 10:13:06;;;;;;;76.32;60.60;;;24.50;99.90;;;;;;5034679;28;20075;-83
2023/09/09 10:15:34;;;;;;;85.70;65.80;;;24.60;99.90;;;;;;5026049;28;20033;-83
2023/09/09 10:18:00;;;;;;;81.57;64.78;;;24.60;99.90;;;;;;5049863;28;20111;-83
2023/09/09 10:20:27;;;;;;;76.43;61.85;;;24.70;99.90;;;;;;5027165;28;20032;-84
2023/09/09 10:22:59;;;;;;;76.13;60.65;;;24.70;99.90;;;;;;5051940;28;20029;-84
2023/09/09 10:25:32;;;;;;;69.70;52.85;;;24.90;99.90;;;;;;5034784;28;20041;-83
2023/09/09 10:27:57;;;;;;;74.28;58.03;;;25.10;99.90;;;;;;5033269;28;20021;-84
2023/09/09 10:30:24;;;;;;;74.25;57.33;;;25.20;99.90;;;;;;5032900;28;20495;-84
2023/09/09 10:32:50;;;;;;;71.28;56.45;;;25.40;99.90;;;;;;5052773;28;20124;-83
2023/09/09 10:35:17;;;;;;;70.40;54.30;;;25.40;99.90;;;;;;5052241;28;20468;-83
2023/09/09 10:37:44;;;;;;;75.32;57.47;;;25.50;99.90;;;;;;5038327;28;20017;-83
2023/09/09 10:40:11;;;;;;;80.18;59.97;;;25.60;99.90;;;;;;5019531;28;20029;-83
2023/09/09 10:42:38;;;;;;;59.92;47.58;;;25.70;99.90;;;;;;5042644;28;20017;-83
2023/09/09 10:45:23;;;;;;;51.67;38.95;;;25.90;99.90;;;;;;5023865;28;20036;-84
2023/09/09 10:48:03;;;;;;;41.47;32.25;;;26.00;99.90;;;;;;5032756;28;20404;-84
2023/09/09 10:50:52;;;;;;;31.83;24.02;;;26.10;99.90;;;;;;5029860;28;20017;-84
2023/09/09 10:53:28;;;;;;;34.08;29.23;;;26.10;99.90;;;;;;5035025;28;20021;-84
2023/09/09 10:55:55;;;;;;;41.72;32.72;;;26.20;99.90;;;;;;5030334;28;20120;-83
2023/09/09 10:58:30;;;;;;;38.78;31.95;;;26.30;99.90;;;;;;5032760;28;20121;-83
2023/09/09 11:00:57;;;;;;;38.42;29.67;;;26.40;99.90;;;;;;5028342;28;20556;-83
2023/09/09 11:03:27;;;;;;;31.02;25.50;;;26.40;99.90;;;;;;5033787;28;20400;-84
2023/09/09 11:06:02;;;;;;;28.65;21.13;;;26.50;99.90;;;;;;5041372;28;20045;-84
2023/09/09 11:08:35;;;;;;;27.38;22.30;;;26.50;99.90;;;;;;5033034;28;20482;-84
2023/09/09 11:11:07;;;;;;;27.77;23.25;;;26.60;99.90;;;;;;5024459;28;20029;-83
2023/09/09 11:13:40;;;;;;;;;;;26.60;99.90;;;;;;5036043;28;20048;-83
2023/09/09 11:16:06;;;;;;;19.70;17.25;;;26.70;99.90;;;;;;5019334;28;20008;-84
2023/09/09 11:18:34;;;;;;;24.23;20.25;;;26.70;99.90;;;;;;5015499;28;20049;-84
2023/09/09 11:21:02;;;;;;;25.95;22.52;;;26.70;99.90;;;;;;5022834;28;20030;-84
2023/09/09 11:23:28;;;;;;;23.30;19.92;;;26.70;99.90;;;;;;5048944;28;20136;-84
2023/09/09 11:25:56;;;;;;;18.75;14.45;;;26.70;99.90;;;;;;5026572;28;20314;-84
2023/09/09 11:28:23;;;;;;;15.65;13.98;;;26.90;99.90;;;;;;5034380;28;20412;-84
2023/09/09 11:30:48;;;;;;;20.52;16.85;;;26.90;99.90;;;;;;5040695;28;20040;-83
2023/09/09 11:33:24;;;;;;;20.42;18.02;;;27.10;99.90;;;;;;5034178;28;20021;-84
2023/09/09 11:35:49;;;;;;;19.83;17.33;;;27.10;99.90;;;;;;5026855;28;20022;-84
2023/09/09 11:38:15;;;;;;;28.83;23.55;;;27.10;99.90;;;;;;5029166;28;20028;-84
2023/09/09 11:40:41;;;;;;;25.45;21.95;;;27.20;99.90;;;;;;5028777;28;20029;-84
2023/09/09 11:43:10;;;;;;;28.27;24.67;;;27.30;99.90;;;;;;5051736;28;20021;-85
2023/09/09 11:45:35;;;;;;;30.35;23.70;;;27.20;99.90;;;;;;5032469;28;20491;-85
2023/09/09 11:48:02;;;;;;;25.48;22.35;;;27.20;99.90;;;;;;5033303;28;20025;-84
2023/09/09 11:50:41;;;;;;;27.83;22.98;;;27.30;99.90;;;;;;5032041;28;20039;-84
2023/09/09 11:53:08;;;;;;;22.73;20.05;;;27.30;99.90;;;;;;5049788;28;20024;-84
2023/09/09 11:55:34;;;;;;;27.23;21.85;;;27.40;99.90;;;;;;5032631;28;20481;-84
2023/09/09 11:57:59;;;;;;;27.35;22.17;;;27.50;99.90;;;;;;5023678;28;20036;-84
2023/09/09 12:00:25;;;;;;;23.98;20.77;;;27.60;99.90;;;;;;5036168;28;20435;-84
2023/09/09 12:02:50;;;;;;;25.83;21.40;;;27.70;99.90;;;;;;5018279;28;20052;-85
2023/09/09 12:05:16;;;;;;;23.55;19.23;;;27.70;99.90;;;;;;5034217;28;20029;-84
2023/09/09 12:07:43;;;;;;;19.08;16.63;;;27.90;99.90;;;;;;5034874;28;20053;-85
2023/09/09 12:10:12;;;;;;;21.27;17.25;;;27.90;99.90;;;;;;5050791;28;20063;-84
2023/09/09 12:12:40;;;;;;;23.65;17.70;;;28.00;99.90;;;;;;5033078;28;20067;-84
2023/09/09 12:15:06;;;;;;;22.00;18.15;;;28.10;99.90;;;;;;5031646;28;20039;-84
2023/09/09 12:17:32;;;;;;;20.50;18.23;;;28.00;99.90;;;;;;5046957;28;20032;-84
2023/09/09 12:19:59;;;;;;;22.33;17.25;;;28.00;99.90;;;;;;5026501;28;20025;-85